Time;durP1;ratioP1;P1;durP2;ratioP2;P2;SDS_P1;SDS_P2;PMS_P1;PMS_P2;Temp;Humidity;BMP_temperature;BMP_pressure;BME280_temperature;BME280_humidity;BME280_pressure;Samples;Min_cycle;Max_cycle;Signal;HPM_P1;HPM_P2
2024/01/25 00:00:14;;;;;;;;;;;17.00;47.80;;;;;;5072666;28;19920;-68
2024/01/25 00:02:40;;;;;;;;;;;17.00;47.80;;;;;;5104328;28;19921;-70
2024/01/25 00:05:06;;;;;;;;;;;17.00;47.80;;;;;;5087497;28;19920;-68
2024/01/25 00:07:32;;;;;;;;;;;17.00;47.80;;;;;;5071943;28;19968;-68
2024/01/25 00:09:57;;;;;;;;;;;17.00;47.90;;;;;;5104776;28;19970;-68
2024/01/25 00:12:26;;;;;;;;;;;17.00;47.90;;;;;;5104634;28;20371;-67
2024/01/25 00:14:52;;;;;;;;;;;17.00;47.90;;;;;;5104405;28;19920;-71
2024/01/25 00:17:18;;;;;;;;;;;17.00;47.90;;;;;;5104229;28;19920;-68
2024/01/25 00:19:43;;;;;;;;;;;17.00;47.90;;;;;;5070508;28;19920;-67
2024/01/25 00:22:09;;;;;;;;;;;17.00;47.90;;;;;;5071716;28;19920;-68
2024/01/25 00:24:34;;;;;;;;;;;16.90;48.60;;;;;;5071919;28;19924;-68
2024/01/25 00:27:00;;;;;;;;;;;16.90;47.90;;;;;;5104152;28;19932;-68
2024/01/25 00:29:25;;;;;;;;;;;16.90;47.90;;;;;;5071727;28;19931;-68
2024/01/25 00:31:51;;;;;;;;;;;16.90;47.90;;;;;;5071690;28;19920;-69
2024/01/25 00:34:16;;;;;;;;;;;16.90;47.90;;;;;;5071562;28;19921;-68
2024/01/25 00:36:42;;;;;;;;;;;16.90;47.90;;;;;;5075360;28;19927;-70
2024/01/25 00:39:08;;;;;;;;;;;16.90;48.70;;;;;;5075286;28;19925;-68
2024/01/25 00:41:36;;;;;;;;;;;16.90;47.90;;;;;;5075289;28;19920;-68
2024/01/25 00:44:02;;;;;;;;;;;16.90;47.90;;;;;;5075053;28;19921;-68
2024/01/25 00:46:28;;;;;;;;;;;16.90;47.90;;;;;;5107793;28;19952;-68
2024/01/25 00:48:53;;;;;;;;;;;16.80;47.90;;;;;;5107545;28;19920;-68
2024/01/25 00:51:21;;;;;;;;;;;16.80;48.00;;;;;;5075229;28;19924;-71
2024/01/25 00:53:46;;;;;;;;;;;16.80;48.00;;;;;;5107897;28;20284;-67
2024/01/25 00:56:12;;;;;;;;;;;16.80;48.00;;;;;;5075058;28;19920;-68
2024/01/25 00:58:38;;;;;;;;;;;16.80;48.00;;;;;;5074050;28;20400;-68
2024/01/25 01:01:03;;;;;;;;;;;16.80;48.00;;;;;;5074944;28;20387;-68
2024/01/25 01:03:29;;;;;;;;;;;16.80;48.00;;;;;;5107714;28;20375;-68
2024/01/25 01:05:57;;;;;;;;;;;16.80;48.00;;;;;;5107312;28;19927;-68
2024/01/25 01:08:22;;;;;;;;;;;16.80;48.00;;;;;;5074515;28;20028;-68
2024/01/25 01:10:48;;;;;;;;;;;16.80;48.00;;;;;;5073842;28;20035;-67
2024/01/25 01:13:13;;;;;;;;;;;16.70;48.00;;;;;;5073331;28;20380;-67
2024/01/25 01:15:39;;;;;;;;;;;17.00;48.10;;;;;;5073595;28;19920;-70
2024/01/25 01:18:05;;;;;;;;;;;17.50;47.30;;;;;;5074530;28;20399;-68
2024/01/25 01:20:30;;;;;;;;;;;17.80;46.50;;;;;;5106984;28;19920;-68
2024/01/25 01:22:56;;;;;;;;;;;18.20;45.80;;;;;;5107364;28;20394;-68
2024/01/25 01:25:22;;;;;;;;;;;18.70;45.30;;;;;;5106873;28;20399;-68
2024/01/25 01:27:47;;;;;;;;;;;19.30;43.90;;;;;;5072794;28;20292;-68
2024/01/25 01:30:13;;;;;;;;;;;20.00;42.70;;;;;;5107099;28;20017;-68
2024/01/25 01:32:38;;;;;;;;;;;20.60;41.50;;;;;;5074291;28;19931;-67
2024/01/25 01:35:04;;;;;;;;;;;21.30;40.40;;;;;;5107044;28;19921;-68
2024/01/25 01:37:30;;;;;;;;;;;21.70;39.60;;;;;;5074453;28;19920;-70
2024/01/25 01:39:55;;;;;;;;;;;22.10;39.00;;;;;;5106585;28;19934;-71
2024/01/25 01:42:21;;;;;;;;;;;22.40;38.40;;;;;;5074435;28;19927;-68
2024/01/25 01:44:47;;;;;;;;;;;22.60;38.00;;;;;;5073002;28;19979;-68
2024/01/25 01:47:13;;;;;;;;;;;22.70;37.80;;;;;;5073896;28;20377;-69
2024/01/25 01:49:38;;;;;;;;;;;22.70;37.70;;;;;;5073786;28;20315;-68
2024/01/25 01:52:04;;;;;;;;;;;22.70;37.70;;;;;;5106492;28;20410;-68
2024/01/25 01:54:30;;;;;;;;;;;22.60;37.80;;;;;;5073788;28;19927;-68
2024/01/25 01:56:55;;;;;;;;;;;22.50;38.00;;;;;;5106382;28;20444;-68
2024/01/25 01:59:21;;;;;;;;;;;22.30;38.10;;;;;;5106327;28;19921;-72
2024/01/25 02:01:46;;;;;;;;;;;22.20;38.30;;;;;;5073643;28;19920;-68
2024/01/25 02:04:15;;;;;;;;;;;22.00;38.50;;;;;;5106478;28;19942;-68
2024/01/25 02:06:42;;;;;;;;;;;21.80;38.80;;;;;;5106311;28;19921;-68
2024/01/25 02:09:07;;;;;;;;;;;21.60;38.90;;;;;;5073623;28;19939;-68
2024/01/25 02:11:33;;;;;;;;;;;21.50;39.20;;;;;;5073418;28;19921;-68
2024/01/25 02:13:58;;;;;;;;;;;21.30;39.40;;;;;;5106226;28;19928;-68
2024/01/25 02:16:24;;;;;;;;;;;21.10;39.70;;;;;;5073357;28;19920;-68
2024/01/25 02:18:54;;;;;;;;;;;21.00;39.90;;;;;;5073278;28;19956;-68
2024/01/25 02:21:19;;;;;;;;;;;20.80;40.10;;;;;;5073064;28;20450;-68
2024/01/25 02:23:45;;;;;;;;;;;20.60;40.30;;;;;;5106207;28;20016;-68
2024/01/25 02:26:10;;;;;;;;;;;20.50;40.60;;;;;;5105774;28;20003;-68
2024/01/25 02:28:36;;;;;;;;;;;20.40;40.80;;;;;;5105473;28;20003;-68
2024/01/25 02:31:02;;;;;;;;;;;20.20;41.00;;;;;;5105894;28;20279;-68
2024/01/25 02:33:28;;;;;;;;;;;20.10;41.20;;;;;;5073084;28;19920;-68
2024/01/25 02:35:53;;;;;;;;;;;20.00;41.40;;;;;;5105826;28;20390;-68
2024/01/25 02:38:19;;;;;;;;;;;19.80;41.60;;;;;;5072952;28;20295;-68
2024/01/25 02:40:44;;;;;;;;;;;19.80;41.70;;;;;;5073069;28;20038;-68
2024/01/25 02:43:10;;;;;;;;;;;19.90;41.70;;;;;;5105200;28;19927;-68
2024/01/25 02:45:36;;;;;;;;;;;20.10;41.50;;;;;;5105754;28;19946;-68
2024/01/25 02:48:03;;;;;;;;;;;20.20;41.20;;;;;;5105507;28;19924;-68
2024/01/25 02:50:28;;;;;;;;;;;20.40;41.00;;;;;;5072702;28;19924;-68
2024/01/25 02:52:54;;;;;;;;;;;20.40;40.60;;;;;;5105523;28;19924;-68
2024/01/25 02:55:20;;;;;;;;;;;20.50;40.40;;;;;;5071654;28;19967;-68
2024/01/25 02:57:45;;;;;;;;;;;20.60;40.20;;;;;;5072158;28;19963;-68
2024/01/25 03:00:11;;;;;;;;;;;20.80;40.10;;;;;;5071653;28;20001;-68
2024/01/25 03:02:36;;;;;;;;;;;20.80;39.90;;;;;;5105118;28;19921;-69
2024/01/25 03:05:02;;;;;;;;;;;20.80;39.80;;;;;;5072973;28;19927;-68
2024/01/25 03:07:28;;;;;;;;;;;20.90;39.70;;;;;;5070990;28;19928;-68
2024/01/25 03:09:53;;;;;;;;;;;20.90;39.60;;;;;;5071701;28;20042;-68
2024/01/25 03:12:19;;;;;;;;;;;20.90;39.60;;;;;;5072420;28;20177;-67
2024/01/25 03:14:45;;;;;;;;;;;20.90;39.60;;;;;;5071468;28;20439;-68
2024/01/25 03:17:12;;;;;;;;;;;20.90;39.60;;;;;;5072624;28;20402;-68
2024/01/25 03:19:38;;;;;;;;;;;20.80;39.60;;;;;;5104757;28;19920;-68
2024/01/25 03:22:03;;;;;;;;;;;20.80;39.70;;;;;;5105109;28;19967;-68
2024/01/25 03:24:29;;;;;;;;;;;20.80;39.80;;;;;;5072327;28;20429;-69
2024/01/25 03:26:54;;;;;;;;;;;20.70;39.80;;;;;;5105079;28;19928;-68
2024/01/25 03:29:20;;;;;;;;;;;20.70;39.90;;;;;;5072312;28;20326;-68
2024/01/25 03:31:45;;;;;;;;;;;20.60;39.90;;;;;;5105184;28;20383;-71
2024/01/25 03:34:11;;;;;;;;;;;20.50;40.00;;;;;;5071251;28;19942;-68
2024/01/25 03:36:39;;;;;;;;;;;20.50;40.10;;;;;;5072299;28;20382;-68
2024/01/25 03:39:08;;;;;;;;;;;20.50;40.40;;;;;;5072523;28;19928;-68
2024/01/25 03:41:33;;;;;;;;;;;20.40;40.20;;;;;;5104634;28;19920;-68
2024/01/25 03:43:59;;;;;;;;;;;20.40;40.30;;;;;;5070884;28;19921;-68
2024/01/25 03:46:24;;;;;;;;;;;20.30;40.40;;;;;;5072258;28;19927;-68
2024/01/25 03:48:54;;;;;;;;;;;20.30;40.50;;;;;;5071987;28;20273;-71
2024/01/25 03:51:20;;;;;;;;;;;20.20;40.50;;;;;;5072112;28;19928;-68
2024/01/25 03:53:45;;;;;;;;;;;20.20;40.60;;;;;;5070708;28;19928;-68
2024/01/25 03:56:12;;;;;;;;;;;20.10;40.60;;;;;;5072051;28;20299;-71
2024/01/25 03:58:37;;;;;;;;;;;20.10;40.60;;;;;;5072175;28;20298;-69
2024/01/25 04:01:03;;;;;;;;;;;20.10;40.60;;;;;;5071928;28;19924;-68
2024/01/25 04:03:29;;;;;;;;;;;20.20;40.60;;;;;;5072059;28;19920;-70
2024/01/25 04:05:57;;;;;;;;;;;20.10;40.60;;;;;;5104505;28;19920;-68
2024/01/25 04:08:22;;;;;;;;;;;20.20;40.50;;;;;;5071816;28;19924;-68
2024/01/25 04:10:48;;;;;;;;;;;20.20;40.50;;;;;;5106757;28;19920;-69
2024/01/25 04:13:13;;;;;;;;;;;20.30;40.50;;;;;;5108882;28;19998;-68
2024/01/25 04:15:39;;;;;;;;;;;20.30;40.40;;;;;;5075709;28;20354;-70
2024/01/25 04:18:04;;;;;;;;;;;20.20;40.30;;;;;;5075606;28;20015;-68
2024/01/25 04:20:31;;;;;;;;;;;20.30;40.30;;;;;;5074581;28;20003;-68
2024/01/25 04:22:56;;;;;;;;;;;20.30;40.20;;;;;;5075569;28;19974;-69
2024/01/25 04:25:22;;;;;;;;;;;20.40;40.20;;;;;;5108159;28;19925;-68
2024/01/25 04:27:48;;;;;;;;;;;20.40;40.10;;;;;;5073873;28;19928;-68
2024/01/25 04:30:13;;;;;;;;;;;20.40;40.10;;;;;;5108221;28;19927;-68
2024/01/25 04:32:40;;;;;;;;;;;20.40;40.00;;;;;;5108149;28;20379;-68
2024/01/25 04:35:05;;;;;;;;;;;20.40;39.90;;;;;;5108413;28;20352;-68
2024/01/25 04:37:31;;;;;;;;;;;20.50;40.00;;;;;;5108276;28;19967;-68
2024/01/25 04:39:56;;;;;;;;;;;20.50;39.90;;;;;;5108277;28;19924;-68
2024/01/25 04:42:22;;;;;;;;;;;20.40;39.80;;;;;;5107746;28;20364;-68
2024/01/25 04:44:47;;;;;;;;;;;20.50;39.80;;;;;;5107775;28;19933;-69
2024/01/25 04:47:13;;;;;;;;;;;20.40;39.80;;;;;;5107669;28;19920;-68
2024/01/25 04:49:40;;;;;;;;;;;20.50;39.80;;;;;;5075171;28;19920;-68
2024/01/25 04:52:08;;;;;;;;;;;20.50;39.70;;;;;;5107986;28;20307;-68
2024/01/25 04:54:34;;;;;;;;;;;20.40;39.70;;;;;;5073611;28;19920;-68
2024/01/25 04:56:59;;;;;;;;;;;20.40;39.60;;;;;;5075092;28;19990;-68
2024/01/25 04:59:25;;;;;;;;;;;20.50;39.70;;;;;;5075143;28;19921;-68
2024/01/25 05:01:52;;;;;;;;;;;20.50;39.70;;;;;;5107486;28;20394;-68
2024/01/25 05:04:18;;;;;;;;;;;20.50;39.70;;;;;;5107858;28;20403;-68
2024/01/25 05:06:43;;;;;;;;;;;20.50;39.70;;;;;;5074665;28;19921;-71
2024/01/25 05:09:09;;;;;;;;;;;20.50;39.70;;;;;;5073351;28;19925;-68
2024/01/25 05:11:42;;;;;;;;;;;20.50;39.70;;;;;;5074930;28;19920;-68
2024/01/25 05:14:10;;;;;;;;;;;20.40;39.60;;;;;;5107582;28;19963;-68
2024/01/25 05:16:36;;;;;;;;;;;20.50;39.50;;;;;;5074510;28;20372;-69
2024/01/25 05:19:04;;;;;;;;;;;20.50;39.50;;;;;;5074468;28;19927;-68
2024/01/25 05:21:31;;;;;;;;;;;20.60;39.50;;;;;;5073139;28;20421;-68
2024/01/25 05:23:56;;;;;;;;;;;20.60;39.40;;;;;;5106999;28;20015;-68
2024/01/25 05:26:22;;;;;;;;;;;20.60;39.30;;;;;;5073422;28;20019;-68
2024/01/25 05:28:47;;;;;;;;;;;20.60;39.30;;;;;;5073992;28;20269;-68
2024/01/25 05:31:13;;;;;;;;;;;20.70;39.30;;;;;;5073005;28;19955;-68
2024/01/25 05:33:39;;;;;;;;;;;20.70;39.20;;;;;;5106757;28;19968;-68
2024/01/25 05:36:05;;;;;;;;;;;20.60;39.10;;;;;;5074260;28;19920;-68
2024/01/25 05:38:32;;;;;;;;;;;20.70;39.20;;;;;;5074036;28;20461;-68
2024/01/25 05:40:58;;;;;;;;;;;20.70;39.10;;;;;;5106788;28;19924;-68
2024/01/25 05:43:23;;;;;;;;;;;20.70;39.10;;;;;;5106683;28;19920;-68
2024/01/25 05:45:49;;;;;;;;;;;20.70;39.00;;;;;;5074202;28;19927;-68
2024/01/25 05:48:14;;;;;;;;;;;20.70;39.00;;;;;;5073962;28;19924;-69
2024/01/25 05:50:40;;;;;;;;;;;20.70;39.00;;;;;;5106895;28;19920;-69
2024/01/25 05:53:05;;;;;;;;;;;20.70;39.00;;;;;;5073783;28;20010;-69
2024/01/25 05:55:34;;;;;;;;;;;20.70;39.10;;;;;;5073841;28;19965;-68
2024/01/25 05:57:59;;;;;;;;;;;20.60;39.00;;;;;;5106316;28;19920;-70
2024/01/25 06:00:25;;;;;;;;;;;20.70;39.10;;;;;;5106783;28;20003;-68
2024/01/25 06:02:54;;;;;;;;;;;20.60;39.10;;;;;;5106240;28;20444;-68
2024/01/25 06:05:19;;;;;;;;;;;20.60;39.10;;;;;;5073673;28;19943;-68
2024/01/25 06:07:45;;;;;;;;;;;20.60;39.20;;;;;;5072224;28;19928;-68
2024/01/25 06:10:11;;;;;;;;;;;20.60;39.20;;;;;;5106381;28;19920;-68
2024/01/25 06:12:36;;;;;;;;;;;20.50;39.10;;;;;;5106164;28;19920;-68
2024/01/25 06:15:02;;;;;;;;;;;20.50;39.10;;;;;;5073346;28;19961;-70
2024/01/25 06:17:28;;;;;;;;;;;20.50;39.10;;;;;;5106302;28;19920;-69
2024/01/25 06:19:53;;;;;;;;;;;20.50;39.10;;;;;;5073214;28;19921;-71
2024/01/25 06:22:19;;;;;;;;;;;20.50;39.10;;;;;;5073361;28;20016;-68
2024/01/25 06:24:44;;;;;;;;;;;20.50;39.20;;;;;;5073190;28;20398;-68
2024/01/25 06:27:10;;;;;;;;;;;20.50;39.20;;;;;;5072921;28;20330;-68
2024/01/25 06:29:38;;;;;;;;;;;20.50;39.20;;;;;;5106068;28;19970;-68
2024/01/25 06:32:03;;;;;;;;;;;20.50;39.20;;;;;;5072119;28;20300;-68
2024/01/25 06:34:29;;;;;;;;;;;20.50;39.20;;;;;;5072922;28;19920;-67
2024/01/25 06:36:54;;;;;;;;;;;20.50;39.20;;;;;;5103551;28;20425;-67
2024/01/25 06:39:20;;;;;;;;;;;20.50;39.20;;;;;;5104234;28;20390;-67
2024/01/25 06:41:45;;;;;;;;;;;20.50;39.50;;;;;;5103922;28;20295;-67
2024/01/25 06:44:11;;;;;;;;;;;20.50;40.50;;;;;;5070209;28;19920;-67
2024/01/25 06:46:37;;;;;;;;;;;20.40;40.10;;;;;;5071216;28;20459;-67
2024/01/25 06:49:02;;;;;;;;;;;20.30;40.20;;;;;;5070128;28;20410;-68
2024/01/25 06:51:28;;;;;;;;;;;20.20;40.20;;;;;;5070926;28;19931;-67
2024/01/25 06:53:54;;;;;;;;;;;20.10;40.30;;;;;;5070023;28;20299;-68
2024/01/25 06:56:19;;;;;;;;;;;20.20;40.20;;;;;;5069898;28;19974;-67
2024/01/25 06:58:47;;;;;;;;;;;20.20;40.20;;;;;;5070936;28;19963;-68
2024/01/25 07:01:13;;;;;;;;;;;20.40;40.20;;;;;;5058671;28;19967;-68
2024/01/25 07:03:39;;;;;;;;;;;20.50;40.20;;;;;;5084810;28;20359;-69
2024/01/25 07:06:04;;;;;;;;;;;20.50;40.10;;;;;;5056957;28;20459;-67
2024/01/25 07:08:30;;;;;;;;;;;20.60;40.00;;;;;;5086652;27;20639;-67
2024/01/25 07:10:56;;;;;;;;;;;20.60;40.10;;;;;;5053652;28;21447;-68
2024/01/25 07:13:21;;;;;;;;;;;20.60;39.90;;;;;;5061936;28;19920;-68
2024/01/25 07:15:47;;;;;;;;;;;20.60;40.00;;;;;;5066474;28;20727;-69
2024/01/25 07:18:13;;;;;;;;;;;20.70;40.60;;;;;;5066536;28;19932;-69
2024/01/25 07:20:38;;;;;;;;;;;20.70;39.80;;;;;;5064265;28;19932;-69
2024/01/25 07:23:04;;;;;;;;;;;20.70;39.80;;;;;;5067682;28;19920;-68
2024/01/25 07:25:29;;;;;;;;;;;20.60;40.00;;;;;;5070217;28;19927;-68
2024/01/25 07:27:55;;;;;;;;;;;20.60;40.20;;;;;;5072110;28;19932;-69
2024/01/25 07:30:20;;;;;;;;;;;20.50;40.40;;;;;;5066393;28;19924;-69
2024/01/25 07:32:46;;;;;;;;;;;20.40;40.50;;;;;;5066123;28;19944;-72
2024/01/25 07:35:12;;;;;;;;;;;20.40;40.80;;;;;;5056351;28;20273;-68
2024/01/25 07:37:39;;;;;;;;;;;20.30;41.00;;;;;;5051625;28;19925;-68
2024/01/25 07:40:05;;;;;;;;;;;20.20;41.20;;;;;;5056166;28;19928;-69
2024/01/25 07:42:33;;;;;;;;;;;20.10;41.50;;;;;;5063419;28;19921;-69
2024/01/25 07:44:59;;;;;;;;;;;20.00;41.70;;;;;;5052558;28;19920;-68
2024/01/25 07:47:24;;;;;;;;;;;19.90;41.90;;;;;;5059254;28;20422;-68
2024/01/25 07:49:50;;;;;;;;;;;19.80;42.10;;;;;;5056293;28;20464;-68
2024/01/25 07:52:15;;;;;;;;;;;19.80;42.20;;;;;;5056855;28;19921;-68
2024/01/25 07:54:41;;;;;;;;;;;19.70;42.20;;;;;;5061756;28;20487;-68
2024/01/25 07:57:07;;;;;;;;;;;19.70;42.10;;;;;;5082640;28;19920;-71
2024/01/25 07:59:32;;;;;;;;;;;19.80;42.10;;;;;;5057655;28;20010;-67
2024/01/25 08:01:58;;;;;;;;;;;19.80;42.00;;;;;;5055998;28;19928;-69
2024/01/25 08:04:23;;;;;;;;;;;19.80;42.10;;;;;;5090507;28;20323;-67
2024/01/25 08:06:49;;;;;;;;;;;19.80;42.00;;;;;;5057419;28;19928;-66
2024/01/25 08:09:14;;;;;;;;;;;19.90;42.10;;;;;;5059031;28;20472;-67
2024/01/25 08:11:49;;;;;;;;;;;20.00;42.00;;;;;;5059508;28;19931;-67
2024/01/25 08:14:15;;;;;;;;;;;20.10;42.00;;;;;;5057901;28;19920;-69
2024/01/25 08:16:41;;;;;;;;;;;20.00;41.90;;;;;;5091141;28;20012;-68
2024/01/25 08:19:07;;;;;;;;;;;20.00;42.10;;;;;;5056856;28;20019;-69
2024/01/25 08:21:32;;;;;;;;;;;20.00;42.10;;;;;;5061423;28;20339;-67
2024/01/25 08:24:01;;;;;;;;;;;20.00;42.10;;;;;;5059679;28;20574;-70
2024/01/25 08:26:26;;;;;;;;;;;20.00;42.20;;;;;;5058437;28;20392;-70
2024/01/25 08:28:52;;;;;;;;;;;20.00;42.10;;;;;;5055484;28;20507;-70
2024/01/25 08:31:20;;;;;;;;;;;20.10;41.90;;;;;;5047073;28;19929;-69
2024/01/25 08:33:47;;;;;;;;;;;20.10;41.90;;;;;;5052487;28;20451;-68
2024/01/25 08:36:13;;;;;;;;;;;20.10;41.80;;;;;;5086869;28;19977;-68
2024/01/25 08:38:39;;;;;;;;;;;20.10;41.80;;;;;;5056122;28;19952;-69
2024/01/25 08:41:04;;;;;;;;;;;20.00;41.70;;;;;;5053935;28;20376;-67
2024/01/25 08:43:32;;;;;;;;;;;20.00;41.70;;;;;;5054946;28;19925;-70
2024/01/25 08:45:58;;;;;;;;;;;20.00;41.70;;;;;;5059037;28;19928;-69
2024/01/25 08:48:24;;;;;;;;;;;19.90;41.70;;;;;;5055622;28;20502;-69
2024/01/25 08:50:53;;;;;;;;;;;19.90;41.70;;;;;;5052944;28;19924;-70
2024/01/25 08:53:19;;;;;;;;;;;19.90;41.60;;;;;;5058582;28;19932;-71
2024/01/25 08:55:44;;;;;;;;;;;20.00;41.60;;;;;;5048722;28;19962;-69
2024/01/25 08:58:10;;;;;;;;;;;20.00;41.50;;;;;;5052805;28;20419;-71
2024/01/25 09:00:35;;;;;;;;;;;20.00;41.30;;;;;;5054233;28;19931;-69
2024/01/25 09:03:01;;;;;;;;;;;20.10;41.20;;;;;;5084493;28;19924;-71
2024/01/25 09:05:28;;;;;;;;;;;20.40;41.10;;;;;;5055716;28;20625;-70
2024/01/25 09:07:53;;;;;;;;;;;20.80;40.60;;;;;;5052896;28;19956;-70
2024/01/25 09:10:19;;;;;;;;;;;21.30;40.10;;;;;;5071226;28;20655;-70
2024/01/25 09:12:45;;;;;;;;;;;21.90;39.60;;;;;;5051954;28;20352;-74
2024/01/25 09:15:13;;;;;;;;;;;22.50;38.90;;;;;;5049819;28;20170;-69
2024/01/25 09:17:39;;;;;;;;;;;23.10;38.20;;;;;;5051622;28;20038;-68
2024/01/25 09:20:06;;;;;;;;;;;23.60;37.60;;;;;;5056807;28;20748;-70
2024/01/25 09:22:31;;;;;;;;;;;24.20;36.90;;;;;;5054588;28;19924;-71
2024/01/25 09:24:57;;;;;;;;;;;24.50;36.40;;;;;;5063162;28;19962;-66
2024/01/25 09:27:22;;;;;;;;;;;24.70;36.30;;;;;;5088841;28;19987;-69
2024/01/25 09:29:48;;;;;;;;;;;24.80;36.20;;;;;;5055372;28;20299;-67
2024/01/25 09:32:13;;;;;;;;;;;25.00;35.80;;;;;;5052797;28;19924;-69
2024/01/25 09:34:39;;;;;;;;;;;25.00;35.90;;;;;;5051554;28;19924;-68
2024/01/25 09:37:05;;;;;;;;;;;24.90;36.00;;;;;;5083620;27;19920;-68
2024/01/25 09:39:31;;;;;;;;;;;24.70;36.30;;;;;;5052249;28;20359;-70
2024/01/25 09:41:57;;;;;;;;;;;24.50;36.60;;;;;;5050776;28;19974;-68
2024/01/25 09:44:22;;;;;;;;;;;24.20;37.50;;;;;;5056812;28;19921;-70
2024/01/25 09:46:48;;;;;;;;;;;23.90;36.90;;;;;;5057364;28;19932;-68
2024/01/25 09:49:14;;;;;;;;;;;23.70;37.30;;;;;;5085023;28;19967;-68
2024/01/25 09:51:41;;;;;;;;;;;23.40;37.70;;;;;;5055737;28;19924;-66
2024/01/25 09:54:06;;;;;;;;;;;23.30;37.90;;;;;;5052039;28;19970;-69
2024/01/25 09:56:32;;;;;;;;;;;23.10;38.20;;;;;;5054575;28;20355;-70
2024/01/25 09:58:58;;;;;;;;;;;23.00;38.40;;;;;;5051497;28;19929;-69
2024/01/25 10:01:24;;;;;;;;;;;22.90;38.60;;;;;;5063375;28;20556;-73
2024/01/25 10:03:49;;;;;;;;;;;22.90;38.80;;;;;;5052533;28;19924;-68
2024/01/25 10:06:15;;;;;;;;;;;22.90;38.90;;;;;;5050756;28;19928;-69
2024/01/25 10:08:41;;;;;;;;;;;23.00;38.90;;;;;;5050749;28;19967;-68
2024/01/25 10:11:08;;;;;;;;;;;23.00;38.80;;;;;;5052558;28;19946;-71
2024/01/25 10:13:44;;;;;;;;;;;23.10;38.70;;;;;;5057051;28;20789;-73
2024/01/25 10:16:14;;;;;;;;;;;23.20;38.80;;;;;;5088346;28;19920;-74
2024/01/25 10:18:42;;;;;;;;;;;23.20;38.80;;;;;;5051390;28;19920;-72
2024/01/25 10:21:10;;;;;;;;;;;23.20;38.90;;;;;;5050014;28;19924;-67
2024/01/25 10:23:35;;;;;;;;;;;23.20;39.10;;;;;;5057359;28;20647;-69
2024/01/25 10:26:01;;;;;;;;;;;23.20;39.00;;;;;;5058059;28;20015;-69
2024/01/25 10:28:28;;;;;;;;;;;23.20;39.00;;;;;;5047997;28;20080;-70
2024/01/25 10:30:55;;;;;;;;;;;23.20;39.10;;;;;;5052782;28;19974;-68
2024/01/25 10:33:21;;;;;;;;;;;23.20;39.10;;;;;;5052024;28;19924;-69
2024/01/25 10:35:49;;;;;;;;;;;23.20;39.10;;;;;;5053111;28;19925;-69
2024/01/25 10:38:17;;;;;;;;;;;23.20;39.20;;;;;;5052241;28;19924;-68
2024/01/25 10:40:43;;;;;;;;;;;23.00;39.40;;;;;;5054284;28;19970;-69
2024/01/25 10:43:09;;;;;;;;;;;22.90;39.70;;;;;;5053950;28;19924;-68
2024/01/25 10:45:34;;;;;;;;;;;23.00;39.90;;;;;;5053507;28;19924;-69
2024/01/25 10:48:00;;;;;;;;;;;23.30;40.00;;;;;;5084604;28;19932;-68
2024/01/25 10:50:26;;;;;;;;;;;23.60;39.60;;;;;;5052882;28;19995;-69
2024/01/25 10:52:51;;;;;;;;;;;24.00;39.10;;;;;;5055793;28;19974;-67
2024/01/25 10:55:17;;;;;;;;;;;24.50;38.60;;;;;;5056008;28;19931;-67
2024/01/25 10:57:44;;;;;;;;;;;24.90;38.00;;;;;;5053831;28;19928;-70
2024/01/25 11:00:12;;;;;;;;;;;25.30;37.70;;;;;;5056094;28;19927;-71
2024/01/25 11:02:39;;;;;;;;;;;25.60;37.40;;;;;;5052617;28;20018;-70
2024/01/25 11:05:12;;;;;;;;;;;25.90;36.80;;;;;;5055427;28;19921;-69
2024/01/25 11:07:42;;;;;;;;;;;26.00;35.90;;;;;;5057015;28;20287;-71
2024/01/25 11:10:11;;;;;;;;;;;25.90;35.70;;;;;;5050017;28;19921;-70
2024/01/25 11:12:46;;;;;;;;;;;25.80;35.80;;;;;;5059119;28;20498;-70
2024/01/25 11:15:17;;;;;;;;;;;25.70;35.80;;;;;;5053591;28;20414;-67
2024/01/25 11:17:50;;;;;;;;;;;25.60;35.90;;;;;;5051379;28;20075;-68
2024/01/25 11:20:15;;;;;;;;;;;25.50;36.10;;;;;;5055634;28;19921;-68
2024/01/25 11:22:44;;;;;;;;;;;25.40;36.10;;;;;;5059932;28;20269;-69
2024/01/25 11:25:13;;;;;;;;;;;25.40;36.00;;;;;;5059010;28;19920;-68
2024/01/25 11:27:39;;;;;;;;;;;25.30;35.80;;;;;;5052832;28;19933;-69
2024/01/25 11:30:08;;;;;;;;;;;25.30;35.80;;;;;;5056094;28;21382;-68
2024/01/25 11:32:33;;;;;;;;;;;25.20;35.70;;;;;;5050251;28;19982;-67
2024/01/25 11:35:02;;;;;;;;;;;25.20;35.50;;;;;;5061288;28;19927;-68
2024/01/25 11:37:27;;;;;;;;;;;25.00;35.40;;;;;;5063842;28;20346;-68
2024/01/25 11:39:53;;;;;;;;;;;24.90;35.20;;;;;;5093327;28;19982;-68
2024/01/25 11:42:18;;;;;;;;;;;24.80;35.20;;;;;;5053593;28;19931;-67
2024/01/25 11:44:44;;;;;;;;;;;24.80;35.30;;;;;;5082014;28;19924;-67
2024/01/25 11:47:10;;;;;;;;;;;24.80;35.60;;;;;;5047692;28;20482;-66
2024/01/25 11:49:35;;;;;;;;;;;24.90;35.70;;;;;;5045125;28;19950;-65
2024/01/25 11:52:03;;;;;;;;;;;24.90;35.80;;;;;;5054334;28;20224;-73
2024/01/25 11:54:29;;;;;;;;;;;25.00;35.80;;;;;;5050495;28;19924;-67
2024/01/25 11:56:55;;;;;;;;;;;25.10;35.90;;;;;;5051368;28;19920;-66
2024/01/25 11:59:20;;;;;;;;;;;25.10;35.90;;;;;;5053336;28;19929;-67
2024/01/25 12:01:46;;;;;;;;;;;25.20;36.10;;;;;;5048075;28;19925;-67
2024/01/25 12:04:11;;;;;;;;;;;25.30;36.10;;;;;;5051415;28;19924;-72
2024/01/25 12:06:37;;;;;;;;;;;25.60;36.10;;;;;;5052938;28;19920;-69
2024/01/25 12:09:08;;;;;;;;;;;25.60;36.00;;;;;;5047877;28;19959;-69
2024/01/25 12:11:34;;;;;;;;;;;25.70;36.00;;;;;;5049529;28;19924;-69
2024/01/25 12:13:59;;;;;;;;;;;25.90;36.00;;;;;;5050899;28;19932;-70
2024/01/25 12:16:25;;;;;;;;;;;26.10;35.80;;;;;;5051702;28;20202;-68
2024/01/25 12:18:56;;;;;;;;;;;26.20;35.60;;;;;;5044807;28;20070;-69
2024/01/25 12:21:23;;;;;;;;;;;26.30;35.50;;;;;;5049711;28;19967;-72
2024/01/25 12:23:48;;;;;;;;;;;26.40;35.20;;;;;;5050828;28;19928;-69
2024/01/25 12:26:16;;;;;;;;;;;26.60;35.10;;;;;;5050931;28;19947;-73
2024/01/25 12:28:41;;;;;;;;;;;26.60;35.10;;;;;;5048179;28;20320;-67
2024/01/25 12:31:07;;;;;;;;;;;26.60;34.90;;;;;;5052121;28;19921;-67
2024/01/25 12:33:33;;;;;;;;;;;26.50;34.90;;;;;;5087248;28;20390;-71
2024/01/25 12:35:59;;;;;;;;;;;26.40;35.10;;;;;;5053329;28;19968;-69
2024/01/25 12:38:25;;;;;;;;;;;26.40;35.40;;;;;;5052712;28;20030;-69
2024/01/25 12:40:51;;;;;;;;;;;26.40;35.30;;;;;;5056842;28;19932;-68
2024/01/25 12:43:17;;;;;;;;;;;26.50;35.40;;;;;;5052935;28;19928;-69
2024/01/25 12:45:43;;;;;;;;;;;26.40;35.20;;;;;;5053111;28;19932;-69
2024/01/25 12:48:09;;;;;;;;;;;26.30;35.40;;;;;;5053626;28;19928;-67
2024/01/25 12:50:35;;;;;;;;;;;26.00;35.70;;;;;;5085545;28;19954;-68
2024/01/25 12:53:01;;;;;;;;;;;25.80;36.20;;;;;;5044882;28;20387;-68
2024/01/25 12:55:28;;;;;;;;;;;25.50;36.50;;;;;;5055532;28;20902;-69
2024/01/25 12:57:54;;;;;;;;;;;25.30;36.80;;;;;;5047963;28;20190;-67
2024/01/25 13:00:19;;;;;;;;;;;25.20;37.10;;;;;;5051404;28;19954;-73
2024/01/25 13:02:45;;;;;;;;;;;25.00;37.40;;;;;;5053115;28;19928;-70
2024/01/25 13:05:14;;;;;;;;;;;24.80;37.70;;;;;;5053013;28;19964;-72
2024/01/25 13:07:39;;;;;;;;;;;24.60;38.10;;;;;;5050686;28;20437;-69
2024/01/25 13:10:05;;;;;;;;;;;24.30;38.40;;;;;;5049860;28;19924;-68
2024/01/25 13:12:31;;;;;;;;;;;24.20;38.70;;;;;;5054310;28;19974;-70
2024/01/25 13:14:56;;;;;;;;;;;24.10;39.00;;;;;;5051922;28;19924;-72
2024/01/25 13:17:23;;;;;;;;;;;23.90;39.20;;;;;;5051919;28;19924;-71
2024/01/25 13:19:49;;;;;;;;;;;23.80;39.50;;;;;;5046847;28;19924;-71
2024/01/25 13:22:17;;;;;;;;;;;23.60;39.80;;;;;;5050248;28;19932;-70
2024/01/25 13:24:43;;;;;;;;;;;23.50;40.20;;;;;;5053131;28;19924;-68
2024/01/25 13:27:08;;;;;;;;;;;23.30;40.50;;;;;;5052454;28;19932;-69
2024/01/25 13:29:34;;;;;;;;;;;23.20;40.80;;;;;;5051979;28;19935;-70
2024/01/25 13:31:59;;;;;;;;;;;23.00;41.00;;;;;;5055099;28;19977;-69
2024/01/25 13:34:25;;;;;;;;;;;22.90;41.30;;;;;;5085408;28;20356;-67
2024/01/25 13:36:50;;;;;;;;;;;22.70;41.50;;;;;;5047228;28;19928;-67
2024/01/25 13:39:16;;;;;;;;;;;22.50;42.00;;;;;;5051628;28;19925;-69
2024/01/25 13:41:42;;;;;;;;;;;22.40;42.40;;;;;;5084773;28;19928;-69
2024/01/25 13:44:08;;;;;;;;;;;22.20;42.70;;;;;;5062421;28;19924;-70
2024/01/25 13:46:33;;;;;;;;;;;22.10;43.00;;;;;;5056224;28;19924;-71
2024/01/25 13:48:59;;;;;;;;;;;22.00;43.30;;;;;;5053403;28;19935;-74
2024/01/25 13:51:25;;;;;;;;;;;21.90;43.50;;;;;;5055106;28;20003;-67
2024/01/25 13:53:50;;;;;;;;;;;21.70;43.70;;;;;;5054340;28;19925;-72
2024/01/25 13:56:16;;;;;;;;;;;21.70;44.10;;;;;;5085154;28;19925;-71
2024/01/25 13:58:41;;;;;;;;;;;21.60;44.20;;;;;;5051277;28;19969;-71
2024/01/25 14:01:07;;;;;;;;;;;21.50;44.40;;;;;;5053276;28;19920;-70
2024/01/25 14:03:36;;;;;;;;;;;21.40;44.70;;;;;;5086926;28;20000;-69
2024/01/25 14:06:04;;;;;;;;;;;21.40;44.90;;;;;;5090239;28;19927;-70
2024/01/25 14:08:30;;;;;;;;;;;21.30;45.20;;;;;;5086998;28;20638;-72